Aviation Digital Data Service (ADDS)

Output produced by METARs form (1707 UTC 24 April 2017)
found at http://www.aviationweather.gov/adds/metars/
 
DGAA 241600Z 19013KT 9999 FEW017 32/25 Q1008 NOSIG
TAF DGAA 241120Z 2412/2518 18012KT 9999 FEW026 
     TEMPO 2416/2420 FEW030CB 
     BECMG 2501/2503 27005KT CAVOK 
     TEMPO 2506/2510 8000 NSC